Terminal Aerodrome Forecast
Issued by NWS

Home | Current Version | Previous Version | Text Only | Print | Product List | Glossary On
Versions: 1 2 3 4 5 6 7 8 9 10 11 12 13 14 15 16 17 18 19 20
000
FTUS46 KSEW 301500 AAB
TAFOLM
TAF AMD
KOLM 301508Z 3015/3112 VRB03KT 5SM -RA BR SCT005 BKN020 OVC040
      TEMPO 3015/3018 2SM RA BR BKN005 OVC020
     FM301800 VRB03KT 5SM -RA BR SCT009 OVC020
     FM302200 21008KT P6SM -SHRA BKN025 OVC040
     FM310200 24008KT P6SM VCSH BKN035 BKN060 PROB30 3102/3108 -SHRA
     FM310800 22006KT P6SM SCT020 BKN040=

USA.gov is the U.S. government's official web portal to all federal, state and local government web resources and services.